Terminal Aerodrome Forecast
Issued by NWS Tuscon, AZ

Home | Current Version | Previous Version | Text Only | Print | Product List | Glossary On
Versions: 1 2 3 4 5 6 7 8 9 10 11 12 13 14 15 16 17 18
217
FTUS45 KTWC 271739
TAFDUG
TAF
KDUG 271739Z 2718/2818 21012KT P6SM SCT150
     FM272000 24018G28KT P6SM FEW100 SCT150
     FM280300 25013KT P6SM SCT070
     FM281000 30015KT P6SM SCT060
     FM281400 30016G26KT P6SM SCT070=

USA.gov is the U.S. government's official web portal to all federal, state and local government web resources and services.